KISQ

Schoolcraft County Airport

Manistique, Michigan, USA
METAR KISQ 210342Z AUTO 00000KT 10SM CLR M02/M03 A2994 RMK AO2
Observed Flight Rules
Jan-21 @ 03:42 UTC (53 minutes ago) Visual Flight Rules
Wind Visibility Clouds
Calm 10 miles
  • Clear skies
Temperatures Readings
Current -2°C / 28°F
Dewpoint -3°C / 27°F
Humidity 93%
Altimeter 29.94" Hg
Pressure 1014 hPa
Elevation 209
METAR KISQ 210342Z AUTO 00000KT 10SM CLR M02/M03 A2994 RMK AO2
Observed Flight Rules
Jan-21 @ 03:42 UTC
(53 minutes ago)
VFR
Wind Visibility
Calm 10 miles
Clouds
  • Clear skies
Temperature Dewpoint
-2°C / 28°F -3°C / 27°F
Humidity Altimeter Pressure
93% 29.94" Hg 1014 hPa